Time;durP1;ratioP1;P1;durP2;ratioP2;P2;SDS_P1;SDS_P2;PMS_P1;PMS_P2;Temp;Humidity;BMP_temperature;BMP_pressure;BME280_temperature;BME280_humidity;BME280_pressure;Samples;Min_cycle;Max_cycle;Signal;HPM_P1;HPM_P2
2023/01/18 00:01:22;;;;;;;9.02;5.13;;;-1.10;99.90;;;;;;5001053;28;20038;-77
2023/01/18 00:03:48;;;;;;;6.75;4.70;;;-1.10;99.90;;;;;;5003927;28;20045;-77
2023/01/18 00:06:15;;;;;;;13.63;6.00;;;-1.20;99.90;;;;;;4973699;28;20039;-77
2023/01/18 00:08:43;;;;;;;8.05;5.18;;;-1.20;99.90;;;;;;4985395;28;20045;-77
2023/01/18 00:11:14;;;;;;;6.47;4.88;;;-1.20;99.90;;;;;;5001166;28;20044;-77
2023/01/18 00:13:40;;;;;;;8.15;4.93;;;-1.20;99.90;;;;;;4987012;28;20572;-77
2023/01/18 00:16:12;;;;;;;10.45;5.13;;;-1.30;99.90;;;;;;5006115;28;20061;-77
2023/01/18 00:18:37;;;;;;;8.70;4.68;;;-1.30;99.90;;;;;;5006694;28;20103;-77
2023/01/18 00:21:09;;;;;;;6.70;4.25;;;-1.30;99.90;;;;;;5003661;28;20672;-77
2023/01/18 00:23:35;;;;;;;9.68;5.28;;;-1.30;99.90;;;;;;5004643;28;20095;-77
2023/01/18 00:26:07;;;;;;;7.50;5.20;;;-1.30;99.90;;;;;;5025154;28;20041;-77
2023/01/18 00:28:33;;;;;;;7.90;5.10;;;-1.30;99.90;;;;;;4986530;28;20128;-77
2023/01/18 00:30:59;;;;;;;10.60;5.38;;;-1.30;99.90;;;;;;4992613;28;20526;-77
2023/01/18 00:33:24;;;;;;;9.43;5.43;;;-1.30;99.90;;;;;;4991532;28;20037;-77
2023/01/18 00:35:58;;;;;;;12.95;5.75;;;-1.30;99.90;;;;;;4976193;28;20041;-77
2023/01/18 00:38:25;;;;;;;7.57;4.97;;;-1.40;99.90;;;;;;4984334;28;20048;-77
2023/01/18 00:40:51;;;;;;;8.48;5.60;;;-1.40;99.90;;;;;;4972570;28;20037;-77
2023/01/18 00:46:01;;;;;;;8.07;5.63;;;-1.40;99.90;;;;;;5005029;28;20131;-77
2023/01/18 00:48:26;;;;;;;8.07;6.03;;;-1.40;99.90;;;;;;4986192;28;20134;-77
2023/01/18 00:50:52;;;;;;;9.77;5.95;;;-1.50;99.90;;;;;;4991930;28;20334;-77
2023/01/18 00:59:30;;;;;;;8.43;5.60;;;-1.40;99.90;;;;;;5006270;28;20099;-67
2023/01/18 01:01:56;;;;;;;7.43;5.88;;;-1.40;99.90;;;;;;4968887;28;20038;-67
2023/01/18 01:07:06;;;;;;;9.10;6.47;;;-1.40;99.90;;;;;;4988818;28;20152;-67
2023/01/18 01:09:31;;;;;;;8.90;6.22;;;-1.30;99.90;;;;;;4993287;28;20118;-67
2023/01/18 01:28:30;;;;;;;12.13;7.38;;;-1.40;99.90;;;;;;4991026;28;20498;-67
2023/01/18 01:30:57;;;;;;;11.75;7.45;;;-1.40;99.90;;;;;;4988841;28;20038;-67
2023/01/18 01:33:23;;;;;;;11.20;7.10;;;-1.40;99.90;;;;;;4990860;28;20387;-67
2023/01/18 01:35:53;;;;;;;10.10;7.20;;;-1.40;99.90;;;;;;4988977;28;20038;-67
2023/01/18 01:38:18;;;;;;;9.50;7.30;;;-1.40;99.90;;;;;;4971208;28;20125;-67
2023/01/18 01:40:57;;;;;;;9.52;7.38;;;-1.40;99.90;;;;;;4991790;28;20223;-67
2023/01/18 01:43:39;;;;;;;12.75;7.38;;;-1.50;99.90;;;;;;4994552;28;20038;-67
2023/01/18 01:46:15;;;;;;;11.77;8.27;;;-1.50;99.90;;;;;;4974232;28;20042;-67
2023/01/18 01:48:41;;;;;;;14.07;7.97;;;-1.50;99.90;;;;;;4989225;28;20034;-67
2023/01/18 01:51:07;;;;;;;11.95;7.70;;;-1.50;99.90;;;;;;4968770;28;20133;-67
2023/01/18 01:53:32;;;;;;;11.95;7.60;;;-1.50;99.90;;;;;;4981223;28;20113;-67
2023/01/18 01:55:59;;;;;;;10.20;7.35;;;-1.50;99.90;;;;;;4956278;28;20042;-67
2023/01/18 01:58:28;;;;;;;11.65;8.57;;;-1.60;99.90;;;;;;4951105;28;20116;-67
2023/01/18 02:00:54;;;;;;;14.30;8.10;;;-1.60;99.90;;;;;;4968996;28;20124;-67
2023/01/18 02:03:23;;;;;;;10.82;7.50;;;-1.60;99.90;;;;;;4971808;28;20585;-67
2023/01/18 02:05:59;;;;;;;14.38;7.82;;;-1.60;99.90;;;;;;4989773;28;20038;-67
2023/01/18 02:08:26;;;;;;;12.23;7.85;;;-1.60;99.90;;;;;;4990059;28;20125;-67
2023/01/18 02:10:52;;;;;;;12.57;8.13;;;-1.70;99.90;;;;;;4966112;28;20112;-67
2023/01/18 02:13:21;;;;;;;11.68;7.70;;;-1.70;99.90;;;;;;4980507;28;20498;-67
2023/01/18 02:15:55;;;;;;;13.35;7.35;;;-1.70;99.90;;;;;;4985769;28;20499;-66
2023/01/18 02:18:39;;;;;;;12.15;8.25;;;-1.60;99.90;;;;;;4988001;28;20531;-67
2023/01/18 02:21:10;;;;;;;11.38;7.38;;;-1.60;99.90;;;;;;5002532;28;20034;-67
2023/01/18 02:24:13;;;;;;;12.83;7.37;;;-1.60;99.90;;;;;;4987441;28;20045;-67
2023/01/18 02:26:44;;;;;;;11.80;8.05;;;-1.50;99.90;;;;;;4967023;28;20042;-67
2023/01/18 02:29:32;;;;;;;9.93;7.22;;;-1.50;99.90;;;;;;4985966;28;20406;-67
2023/01/18 02:32:27;;;;;;;11.13;7.43;;;-1.50;99.90;;;;;;4989345;28;20696;-67
2023/01/18 02:35:15;;;;;;;12.27;7.10;;;-1.60;99.90;;;;;;4992841;28;20101;-67
2023/01/18 02:38:13;;;;;;;12.95;6.88;;;-1.50;99.90;;;;;;4986153;28;20108;-67
2023/01/18 02:41:04;;;;;;;11.70;8.15;;;-1.50;99.90;;;;;;4988527;28;20034;-67
2023/01/18 02:46:32;;;;;;;11.38;8.23;;;-1.50;99.90;;;;;;4986881;28;20050;-67
2023/01/18 02:49:07;;;;;;;14.80;7.53;;;-1.50;99.90;;;;;;4987785;28;20569;-67
2023/01/18 02:51:34;;;;;;;12.02;7.68;;;-1.50;99.90;;;;;;4986346;28;20670;-67
2023/01/18 02:54:01;;;;;;;11.82;8.00;;;-1.50;99.90;;;;;;4986074;28;20054;-67
2023/01/18 02:56:33;;;;;;;10.13;7.32;;;-1.50;99.90;;;;;;4967998;28;20061;-67
2023/01/18 02:59:11;;;;;;;13.20;8.02;;;-1.50;99.90;;;;;;4972680;28;20049;-67
2023/01/18 03:01:56;;;;;;;10.65;6.75;;;-1.50;99.90;;;;;;4985277;28;20052;-67
2023/01/18 03:04:26;;;;;;;11.00;7.28;;;-1.50;99.90;;;;;;4971495;28;20047;-67
2023/01/18 03:07:10;;;;;;;11.00;7.10;;;-1.60;99.90;;;;;;4967206;28;20048;-67
2023/01/18 03:09:36;;;;;;;11.30;7.03;;;-1.60;99.90;;;;;;4987976;28;20523;-67
2023/01/18 03:12:14;;;;;;;11.48;7.10;;;-1.60;99.90;;;;;;4968311;28;20060;-67
2023/01/18 03:15:07;;;;;;;12.65;6.88;;;-1.50;99.90;;;;;;4984305;28;20221;-67
2023/01/18 03:17:35;;;;;;;11.70;7.28;;;-1.50;99.90;;;;;;4983581;28;20133;-67
2023/01/18 03:20:08;;;;;;;10.98;6.75;;;-1.40;99.90;;;;;;4986604;28;20563;-67
2023/01/18 03:25:31;;;;;;;10.02;6.72;;;-1.40;99.90;;;;;;4981349;28;20042;-67
2023/01/18 03:33:46;;;;;;;9.35;6.43;;;-1.50;99.90;;;;;;4988817;28;20107;-67
2023/01/18 03:36:14;;;;;;;11.63;6.85;;;-1.50;99.90;;;;;;4988250;28;20106;-67
2023/01/18 03:38:42;;;;;;;10.10;6.70;;;-1.50;99.90;;;;;;4986174;28;20048;-67
2023/01/18 03:41:09;;;;;;;11.38;7.18;;;-1.50;99.90;;;;;;4973175;28;20049;-67
2023/01/18 03:43:36;;;;;;;10.75;7.25;;;-1.60;99.90;;;;;;4990424;28;20084;-67
2023/01/18 03:46:03;;;;;;;12.95;7.65;;;-1.60;99.90;;;;;;4970770;28;20063;-67
2023/01/18 03:48:31;;;;;;;12.50;7.68;;;-1.70;99.90;;;;;;4988970;28;20039;-67
2023/01/18 03:51:21;;;;;;;12.93;6.88;;;-1.70;99.90;;;;;;4990677;28;20184;-67
2023/01/18 03:54:14;;;;;;;12.77;7.63;;;-1.70;99.90;;;;;;4989875;28;20401;-67
2023/01/18 03:56:50;;;;;;;11.27;6.97;;;-1.70;99.90;;;;;;4996132;28;20073;-67
2023/01/18 03:59:16;;;;;;;10.85;7.60;;;-1.70;99.90;;;;;;4990656;28;20041;-67
2023/01/18 04:01:46;;;;;;;13.57;7.63;;;-1.70;99.90;;;;;;4991489;28;20046;-67
2023/01/18 04:04:13;;;;;;;13.13;7.35;;;-1.70;99.90;;;;;;4990320;28;20088;-66
2023/01/18 04:06:39;;;;;;;11.45;8.15;;;-1.70;99.90;;;;;;4990348;28;20149;-67
2023/01/18 04:09:07;;;;;;;12.93;7.80;;;-1.70;99.90;;;;;;4991511;28;20037;-67
2023/01/18 04:11:33;;;;;;;12.75;8.10;;;-1.70;99.90;;;;;;4992173;28;20529;-66
2023/01/18 04:13:58;;;;;;;10.40;7.55;;;-1.70;99.90;;;;;;4986188;28;20033;-67
2023/01/18 04:16:24;;;;;;;11.88;8.02;;;-1.80;99.90;;;;;;4974311;28;20494;-67
2023/01/18 04:18:51;;;;;;;10.18;8.10;;;-1.80;99.90;;;;;;4986029;28;20490;-67
2023/01/18 04:21:16;;;;;;;11.95;9.02;;;-1.80;99.90;;;;;;4974890;28;20038;-66
2023/01/18 04:23:42;;;;;;;11.50;8.40;;;-1.80;99.90;;;;;;4993392;28;20046;-67
2023/01/18 04:26:10;;;;;;;12.02;8.80;;;-2.70;99.90;;;;;;4991906;28;20066;-66
2023/01/18 04:28:36;;;;;;;13.35;7.97;;;-1.80;99.90;;;;;;4989783;28;20041;-67
2023/01/18 04:31:02;;;;;;;13.05;8.48;;;-1.60;99.90;;;;;;4986458;28;20049;-67
2023/01/18 04:33:28;;;;;;;15.82;9.23;;;-1.80;99.90;;;;;;4974922;28;20041;-67
2023/01/18 04:35:53;;;;;;;11.35;8.20;;;-1.80;99.90;;;;;;4992213;28;20072;-66
2023/01/18 04:38:19;;;;;;;12.18;8.50;;;-1.70;99.90;;;;;;4973432;28;20437;-67
2023/01/18 04:40:45;;;;;;;12.88;7.85;;;-1.70;99.90;;;;;;4992499;28;20050;-66
2023/01/18 04:43:11;;;;;;;11.98;8.60;;;-1.30;99.90;;;;;;4975105;28;20038;-66
2023/01/18 04:45:37;;;;;;;10.70;7.88;;;-1.70;99.90;;;;;;4987360;28;20034;-66
2023/01/18 04:48:03;;;;;;;13.32;8.35;;;-1.70;99.90;;;;;;4986130;28;20068;-66
2023/01/18 04:50:29;;;;;;;11.98;8.95;;;-1.70;99.90;;;;;;4974947;28;20033;-67
2023/01/18 04:52:54;;;;;;;14.95;8.35;;;-1.70;99.90;;;;;;4990497;28;20045;-66
2023/01/18 04:55:21;;;;;;;11.50;8.38;;;-1.70;99.90;;;;;;4973123;28;20042;-66
2023/01/18 04:57:54;;;;;;;12.65;7.90;;;-1.70;99.90;;;;;;4988726;28;20684;-66
2023/01/18 05:00:21;;;;;;;12.80;8.43;;;-1.60;99.90;;;;;;4989171;28;20042;-66
2023/01/18 05:02:47;;;;;;;15.15;8.70;;;-1.70;99.90;;;;;;4971658;28;20033;-67
2023/01/18 05:05:13;;;;;;;12.88;8.02;;;-1.60;99.90;;;;;;4974754;28;20046;-66
2023/01/18 05:07:38;;;;;;;13.20;8.57;;;-1.60;99.90;;;;;;4987570;28;20084;-66
2023/01/18 05:10:05;;;;;;;14.50;8.70;;;-1.40;99.90;;;;;;4997839;28;20124;-66
2023/01/18 05:12:30;;;;;;;12.50;7.97;;;-1.60;99.90;;;;;;4989757;28;20449;-66
2023/01/18 05:14:56;;;;;;;15.32;9.05;;;-1.60;99.90;;;;;;4991191;28;20038;-66
2023/01/18 05:17:26;;;;;;;13.60;8.98;;;-1.60;99.90;;;;;;4990558;28;20046;-66
2023/01/18 05:19:53;;;;;;;13.98;8.63;;;-1.60;99.90;;;;;;4969748;28;20050;-66
2023/01/18 05:22:20;;;;;;;17.75;9.43;;;-1.70;99.90;;;;;;4969251;28;20278;-66
2023/01/18 05:24:46;;;;;;;16.45;9.35;;;-1.70;99.90;;;;;;4989551;28;20042;-66
2023/01/18 05:27:12;;;;;;;13.73;8.77;;;-1.70;99.90;;;;;;4983866;28;20045;-66
2023/01/18 05:29:38;;;;;;;14.52;9.15;;;-1.70;99.90;;;;;;4985055;28;20498;-66
2023/01/18 05:32:05;;;;;;;13.45;8.52;;;-1.70;99.90;;;;;;4967096;28;20117;-66
2023/01/18 05:34:31;;;;;;;15.82;8.90;;;-1.40;99.90;;;;;;4992036;28;20042;-66
2023/01/18 05:36:57;;;;;;;16.50;8.85;;;-1.70;99.90;;;;;;4987630;28;20060;-66
2023/01/18 05:39:23;;;;;;;14.82;8.80;;;-1.70;99.90;;;;;;4968695;28;20097;-66
2023/01/18 05:41:49;;;;;;;12.15;9.48;;;-1.70;99.90;;;;;;4972436;28;20118;-66
2023/01/18 05:44:15;;;;;;;15.18;9.50;;;-1.70;99.90;;;;;;4996537;28;20048;-66
2023/01/18 05:46:41;;;;;;;11.38;8.10;;;-1.70;99.90;;;;;;4995117;28;20486;-66
2023/01/18 05:49:06;;;;;;;15.38;9.30;;;-1.60;99.90;;;;;;5008652;28;20563;-66
2023/01/18 05:51:32;;;;;;;13.27;8.77;;;-1.60;99.90;;;;;;4956409;28;20562;-66
2023/01/18 05:53:58;;;;;;;11.80;9.40;;;-1.70;99.90;;;;;;4989698;28;20054;-66
2023/01/18 05:56:23;;;;;;;12.90;9.00;;;-1.70;99.90;;;;;;4971065;28;20040;-66
2023/01/18 05:58:49;;;;;;;17.17;9.38;;;-1.70;99.90;;;;;;4988771;28;20526;-66
2023/01/18 06:01:15;;;;;;;13.40;9.73;;;-1.80;99.90;;;;;;4986419;28;20046;-66
2023/01/18 06:03:41;;;;;;;14.02;9.55;;;-1.80;99.90;;;;;;4989399;28;20034;-66
2023/01/18 06:06:07;;;;;;;15.07;9.40;;;-1.80;99.90;;;;;;4970087;28;20065;-66
2023/01/18 06:08:33;;;;;;;15.50;9.18;;;-1.40;99.90;;;;;;4971142;28;20048;-67
2023/01/18 06:11:00;;;;;;;14.73;9.00;;;-1.80;99.90;;;;;;4988432;28;20494;-66
2023/01/18 06:13:29;;;;;;;19.67;9.80;;;-1.80;99.90;;;;;;4989804;28;20095;-66
2023/01/18 06:15:56;;;;;;;15.20;8.95;;;-1.90;99.90;;;;;;4989124;28;20057;-66
2023/01/18 06:18:24;;;;;;;15.65;10.10;;;-1.90;99.90;;;;;;4986300;28;20406;-66
2023/01/18 06:20:53;;;;;;;18.23;9.73;;;-1.90;99.90;;;;;;4990334;28;20133;-66
2023/01/18 06:23:19;;;;;;;15.15;10.02;;;-1.90;99.90;;;;;;4987273;28;20043;-66
2023/01/18 06:25:45;;;;;;;14.90;9.85;;;-1.60;99.90;;;;;;4973023;28;20112;-66
2023/01/18 06:28:11;;;;;;;17.25;10.25;;;-1.90;99.90;;;;;;4970870;28;20125;-66
2023/01/18 06:30:36;;;;;;;17.55;10.48;;;-1.90;99.90;;;;;;4985523;28;20523;-66
2023/01/18 06:33:05;;;;;;;15.55;10.50;;;-1.90;99.90;;;;;;4976023;28;20038;-66
2023/01/18 06:35:35;;;;;;;16.65;10.05;;;-1.90;99.90;;;;;;4985644;28;20111;-66
2023/01/18 06:38:02;;;;;;;16.48;10.27;;;-2.00;99.90;;;;;;4985408;28;20431;-66
2023/01/18 06:40:28;;;;;;;17.55;10.73;;;-2.00;99.90;;;;;;4987125;28;20414;-66
2023/01/18 06:42:54;;;;;;;18.15;11.55;;;-1.70;99.90;;;;;;4989052;28;20045;-66
2023/01/18 06:45:21;;;;;;;16.90;10.43;;;-2.00;99.90;;;;;;4968621;28;20033;-66
2023/01/18 06:47:49;;;;;;;15.63;10.98;;;-2.00;99.90;;;;;;4969584;28;20328;-66
2023/01/18 06:50:15;;;;;;;17.23;10.82;;;-2.00;99.90;;;;;;4988189;28;20170;-66
2023/01/18 06:52:42;;;;;;;18.08;11.57;;;-2.10;99.90;;;;;;4966597;28;20042;-66
2023/01/18 06:55:09;;;;;;;17.63;10.80;;;-2.10;99.90;;;;;;4976269;28;20088;-66
2023/01/18 06:57:35;;;;;;;15.32;10.48;;;-2.00;99.90;;;;;;4970774;28;20137;-66
2023/01/18 07:00:04;;;;;;;18.67;10.55;;;-2.10;99.90;;;;;;4976706;28;20128;-66
2023/01/18 07:02:31;;;;;;;19.20;11.40;;;-2.10;99.90;;;;;;4959705;28;20088;-66
2023/01/18 07:04:57;;;;;;;16.98;11.40;;;-2.00;99.90;;;;;;4976981;28;20038;-66
2023/01/18 07:07:23;;;;;;;39.28;12.88;;;-2.10;99.90;;;;;;4991944;28;20461;-66
2023/01/18 07:09:49;;;;;;;19.50;12.25;;;-2.10;99.90;;;;;;4991064;28;20077;-66
2023/01/18 07:12:15;;;;;;;20.60;12.43;;;-2.00;99.90;;;;;;4968607;28;20076;-66
2023/01/18 07:14:40;;;;;;;20.05;12.32;;;-2.10;99.90;;;;;;4956491;28;20081;-66
2023/01/18 07:17:07;;;;;;;18.65;11.93;;;-2.10;99.90;;;;;;4984853;28;20037;-66
2023/01/18 07:19:33;;;;;;;17.20;12.00;;;-2.10;99.90;;;;;;4964309;28;20046;-66
2023/01/18 07:22:00;;;;;;;17.13;12.10;;;-2.10;99.90;;;;;;4972613;28;20482;-66
2023/01/18 07:24:26;;;;;;;21.92;12.38;;;-2.10;99.90;;;;;;4973766;28;20033;-66
2023/01/18 07:26:52;;;;;;;19.83;13.05;;;-2.10;99.90;;;;;;4941507;28;20073;-66
2023/01/18 07:29:18;;;;;;;20.25;13.40;;;-2.20;99.90;;;;;;4988447;28;20042;-66
2023/01/18 07:31:44;;;;;;;22.23;14.27;;;-2.20;99.90;;;;;;4990195;28;20406;-66
2023/01/18 07:34:10;;;;;;;19.65;13.15;;;-2.20;99.90;;;;;;4986002;28;20571;-66
2023/01/18 07:36:38;;;;;;;28.38;13.75;;;-2.20;99.90;;;;;;4989521;28;20042;-66
2023/01/18 07:39:05;;;;;;;21.98;14.02;;;-2.20;99.90;;;;;;4970391;28;20038;-66
2023/01/18 07:41:31;;;;;;;22.38;12.80;;;-2.20;99.90;;;;;;4943921;28;20038;-66
2023/01/18 07:43:57;;;;;;;26.95;14.15;;;-2.20;99.90;;;;;;4943726;28;20138;-66
2023/01/18 07:46:24;;;;;;;25.48;14.32;;;-1.80;99.90;;;;;;4989684;28;20121;-66
2023/01/18 07:48:51;;;;;;;24.05;14.60;;;-2.10;99.90;;;;;;4972309;28;20402;-66
2023/01/18 07:51:20;;;;;;;21.45;14.65;;;-2.10;99.90;;;;;;4989940;28;20065;-66
2023/01/18 07:53:46;;;;;;;20.83;14.07;;;-2.10;99.90;;;;;;4990003;28;20045;-66
2023/01/18 07:56:13;;;;;;;25.38;14.07;;;-2.10;99.90;;;;;;4985611;28;20034;-66
2023/01/18 07:58:40;;;;;;;21.88;14.57;;;-2.10;99.90;;;;;;4987127;28;20115;-66
2023/01/18 08:01:08;;;;;;;27.45;14.85;;;-1.70;99.90;;;;;;4990813;28;20050;-66
2023/01/18 08:03:35;;;;;;;23.63;14.38;;;-2.10;99.90;;;;;;4970625;28;20041;-66
2023/01/18 08:06:05;;;;;;;18.73;12.98;;;-2.10;99.90;;;;;;4990669;28;20121;-66
2023/01/18 08:08:30;;;;;;;21.27;14.55;;;-2.10;99.90;;;;;;4987557;28;20042;-66
2023/01/18 08:11:01;;;;;;;24.33;14.40;;;-2.00;99.90;;;;;;4988918;28;20034;-66
2023/01/18 08:13:27;;;;;;;25.10;14.23;;;-1.90;99.90;;;;;;4990251;28;20030;-66
2023/01/18 08:15:54;;;;;;;23.75;13.23;;;-1.90;99.90;;;;;;4991463;28;20115;-66
2023/01/18 08:18:20;;;;;;;20.70;12.73;;;-1.80;99.90;;;;;;4991664;28;20044;-66
2023/01/18 08:20:47;;;;;;;22.38;12.82;;;-1.80;99.90;;;;;;5003814;28;20073;-66
2023/01/18 08:23:15;;;;;;;19.45;11.45;;;-1.70;99.90;;;;;;4975619;28;20124;-66
2023/01/18 08:25:43;;;;;;;24.40;14.00;;;-1.60;99.90;;;;;;4990784;28;20042;-66
2023/01/18 08:28:10;;;;;;;21.80;12.77;;;-1.50;99.90;;;;;;4991349;28;20030;-66
2023/01/18 08:30:39;;;;;;;19.60;13.15;;;-1.50;99.90;;;;;;4982424;28;20048;-66
2023/01/18 08:33:06;;;;;;;18.92;12.10;;;-1.40;99.90;;;;;;4991471;28;20529;-66
2023/01/18 08:35:41;;;;;;;19.38;12.48;;;-1.30;99.90;;;;;;4975636;28;20112;-66
2023/01/18 08:38:07;;;;;;;19.42;11.77;;;-1.40;99.90;;;;;;4987925;28;20045;-66
2023/01/18 08:40:33;;;;;;;20.77;11.43;;;-0.90;99.90;;;;;;4960341;28;20038;-66
2023/01/18 08:43:01;;;;;;;20.05;12.38;;;-1.10;99.90;;;;;;4978574;28;20038;-66
2023/01/18 08:45:27;;;;;;;15.40;10.75;;;-1.30;99.90;;;;;;4978862;28;20506;-66
2023/01/18 08:48:01;;;;;;;16.67;10.82;;;-1.30;99.90;;;;;;4994607;28;20514;-66
2023/01/18 08:50:28;;;;;;;18.02;11.52;;;-1.20;99.90;;;;;;4993856;28;20486;-66
2023/01/18 08:52:54;;;;;;;17.33;11.10;;;-1.20;99.90;;;;;;4978296;28;20076;-66
2023/01/18 08:55:21;;;;;;;17.00;10.43;;;-1.10;99.90;;;;;;4993813;28;20046;-66
2023/01/18 08:57:47;;;;;;;15.45;10.15;;;-1.00;99.90;;;;;;4993933;28;20124;-66
2023/01/18 09:00:15;;;;;;;15.32;10.05;;;-0.70;99.90;;;;;;5008209;28;20061;-66
2023/01/18 09:02:41;;;;;;;16.98;10.73;;;-0.50;99.90;;;;;;4990678;28;20069;-66
2023/01/18 09:05:07;;;;;;;14.00;10.20;;;-0.30;99.90;;;;;;4981891;28;20065;-66
2023/01/18 09:07:32;;;;;;;16.00;10.00;;;0.30;99.90;;;;;;4961648;28;20034;-66
2023/01/18 09:09:58;;;;;;;13.05;8.38;;;0.90;99.90;;;;;;4965526;28;20172;-66
2023/01/18 09:12:24;;;;;;;14.50;9.63;;;1.50;99.90;;;;;;5002821;28;20046;-67
2023/01/18 09:14:50;;;;;;;14.73;8.95;;;1.90;99.90;;;;;;4977437;28;20038;-67
2023/01/18 09:17:18;;;;;;;14.02;8.07;;;2.30;99.90;;;;;;4978044;28;20045;-67
2023/01/18 09:19:44;;;;;;;14.93;7.50;;;2.90;99.90;;;;;;4993862;28;20081;-67
2023/01/18 09:22:11;;;;;;;12.10;7.55;;;3.90;99.90;;;;;;4977718;28;20454;-67
2023/01/18 09:24:37;;;;;;;10.60;7.47;;;3.50;99.90;;;;;;4969881;28;20041;-67
2023/01/18 09:27:03;;;;;;;16.02;8.35;;;4.20;99.90;;;;;;4984441;28;20091;-68
2023/01/18 09:29:30;;;;;;;12.65;7.93;;;4.70;99.90;;;;;;4993383;28;20167;-68
2023/01/18 09:31:56;;;;;;;13.05;7.43;;;5.00;99.90;;;;;;4993882;28;20044;-68
2023/01/18 09:34:22;;;;;;;10.40;7.57;;;5.10;99.90;;;;;;4974048;28;20042;-67
2023/01/18 09:36:51;;;;;;;10.35;6.95;;;5.30;99.90;;;;;;4986840;28;20529;-68
2023/01/18 09:39:19;;;;;;;12.25;7.05;;;5.60;99.90;;;;;;4993548;28;20034;-68
2023/01/18 09:41:51;;;;;;;9.43;7.25;;;5.40;99.90;;;;;;4993478;28;20046;-67
2023/01/18 09:44:44;;;;;;;10.00;6.72;;;5.10;99.90;;;;;;4976073;28;20042;-67
2023/01/18 09:47:25;;;;;;;9.90;6.85;;;5.00;99.90;;;;;;4986937;28;20081;-67
2023/01/18 09:49:56;;;;;;;10.85;6.25;;;4.90;99.90;;;;;;4977725;28;20046;-68
2023/01/18 09:52:26;;;;;;;10.07;7.32;;;5.00;99.90;;;;;;4977322;28;20042;-68
2023/01/18 09:54:59;;;;;;;11.45;6.97;;;4.90;99.90;;;;;;4993300;28;20072;-68
2023/01/18 09:57:46;;;;;;;11.45;7.38;;;4.50;99.90;;;;;;4993632;28;20061;-68
2023/01/18 10:00:22;;;;;;;8.77;6.32;;;3.70;99.90;;;;;;4975779;28;20150;-67
2023/01/18 10:02:54;;;;;;;9.32;7.05;;;3.00;99.90;;;;;;4974395;28;20044;-67
2023/01/18 10:05:24;;;;;;;11.00;6.82;;;3.00;99.90;;;;;;4990247;28;20180;-68
2023/01/18 10:08:03;;;;;;;9.75;7.03;;;3.10;99.90;;;;;;4977717;28;20038;-68
2023/01/18 10:11:09;;;;;;;11.93;7.05;;;3.00;99.90;;;;;;4987785;28;20635;-68
2023/01/18 10:13:41;;;;;;;10.30;6.45;;;2.80;99.90;;;;;;4981971;28;20446;-68
2023/01/18 10:16:19;;;;;;;10.93;6.90;;;2.80;99.90;;;;;;4972761;28;20073;-67
2023/01/18 10:18:50;;;;;;;11.05;6.82;;;2.80;99.90;;;;;;4989267;28;20078;-67
2023/01/18 10:21:25;;;;;;;11.25;6.78;;;2.80;99.90;;;;;;4987225;28;20078;-67
2023/01/18 10:24:08;;;;;;;11.30;6.82;;;2.50;99.90;;;;;;4992939;28;20041;-67
2023/01/18 10:26:37;;;;;;;9.30;6.15;;;2.60;99.90;;;;;;5010173;28;20070;-67
2023/01/18 10:29:19;;;;;;;9.75;6.70;;;2.80;99.90;;;;;;4993140;28;20046;-67
2023/01/18 10:32:03;;;;;;;12.77;7.20;;;2.90;99.90;;;;;;4992826;28;20054;-67
2023/01/18 10:34:34;;;;;;;7.45;5.93;;;2.90;99.90;;;;;;4992570;28;20347;-67
2023/01/18 10:37:13;;;;;;;15.30;8.13;;;2.90;99.90;;;;;;5007750;28;20041;-67
2023/01/18 10:39:46;;;;;;;9.40;7.07;;;2.70;99.90;;;;;;4991112;28;20038;-67
2023/01/18 10:42:50;;;;;;;13.77;6.28;;;2.90;99.90;;;;;;4992729;28;20282;-67
2023/01/18 10:45:27;;;;;;;10.43;6.38;;;3.30;99.90;;;;;;4976472;28;20125;-67
2023/01/18 10:47:56;;;;;;;8.73;5.80;;;3.40;99.90;;;;;;4991615;28;20042;-67
2023/01/18 10:50:35;;;;;;;10.88;6.20;;;3.80;99.90;;;;;;4974551;28;20038;-67
2023/01/18 10:53:20;;;;;;;11.27;5.90;;;3.50;99.90;;;;;;4992799;28;20091;-67
2023/01/18 10:56:16;;;;;;;8.98;5.68;;;3.10;99.90;;;;;;4991937;28;20046;-67
2023/01/18 10:58:51;;;;;;;13.23;6.55;;;3.10;99.90;;;;;;4989798;28;20049;-67
2023/01/18 11:01:51;;;;;;;7.40;5.43;;;3.30;99.90;;;;;;4976010;28;20046;-67
2023/01/18 11:04:23;;;;;;;9.80;5.55;;;3.30;99.90;;;;;;4992314;28;20036;-67
2023/01/18 11:06:56;;;;;;;8.27;5.68;;;3.40;99.90;;;;;;4976215;28;20041;-67
2023/01/18 11:09:54;;;;;;;8.70;5.65;;;3.30;99.90;;;;;;4992188;28;20038;-67
2023/01/18 11:12:50;;;;;;;10.65;5.47;;;3.20;99.90;;;;;;4992233;28;20042;-67
2023/01/18 11:15:17;;;;;;;10.70;5.03;;;3.10;99.90;;;;;;4992147;28;20044;-67
2023/01/18 11:17:53;;;;;;;8.95;5.70;;;2.80;99.90;;;;;;4975963;28;20042;-67
2023/01/18 11:20:33;;;;;;;11.45;5.55;;;2.70;99.90;;;;;;4976012;28;20121;-67
2023/01/18 11:23:08;;;;;;;9.32;5.80;;;2.50;99.90;;;;;;5008790;28;20124;-67
2023/01/18 11:25:56;;;;;;;8.02;5.35;;;2.90;99.90;;;;;;4991868;28;20041;-67
2023/01/18 11:28:25;;;;;;;8.20;5.28;;;2.50;99.90;;;;;;4974865;28;20040;-67
2023/01/18 11:31:09;;;;;;;9.95;5.85;;;2.50;99.90;;;;;;5002534;28;20108;-67
2023/01/18 11:33:49;;;;;;;9.25;6.00;;;2.50;99.90;;;;;;4976211;28;20543;-67
2023/01/18 11:36:17;;;;;;;12.15;5.65;;;2.50;99.90;;;;;;4976225;28;20445;-66
2023/01/18 11:38:43;;;;;;;9.13;6.07;;;2.50;99.90;;;;;;4979884;28;20131;-66
2023/01/18 11:41:22;;;;;;;8.90;5.93;;;2.50;99.90;;;;;;4977522;28;20152;-67
2023/01/18 11:43:56;;;;;;;8.43;5.78;;;2.50;99.90;;;;;;4956386;28;20053;-67
2023/01/18 11:46:33;;;;;;;8.02;5.15;;;2.50;99.90;;;;;;4975317;28;20064;-67
2023/01/18 11:49:37;;;;;;;9.52;5.85;;;2.50;99.90;;;;;;4972607;28;20041;-67
2023/01/18 11:52:15;;;;;;;10.57;6.00;;;2.40;99.90;;;;;;4931008;28;20881;-67
2023/01/18 11:54:45;;;;;;;7.80;5.25;;;2.40;99.90;;;;;;4975519;28;20057;-66
2023/01/18 11:57:11;;;;;;;14.45;6.13;;;2.40;99.90;;;;;;4974535;28;20085;-67
2023/01/18 11:59:45;;;;;;;11.32;5.13;;;2.40;99.90;;;;;;4944283;28;20577;-67
2023/01/18 12:02:54;;;;;;;12.43;5.80;;;2.40;99.90;;;;;;4974930;28;20046;-67
2023/01/18 12:05:43;;;;;;;10.80;5.82;;;2.50;99.90;;;;;;4976026;28;20507;-67
2023/01/18 12:09:04;;;;;;;21.35;5.90;;;2.50;99.90;;;;;;4971570;28;20045;-67
2023/01/18 12:11:47;;;;;;;7.18;5.57;;;2.50;99.90;;;;;;4942021;28;20554;-67
2023/01/18 12:14:37;;;;;;;11.63;5.60;;;2.60;99.90;;;;;;4978794;28;20641;-67
2023/01/18 12:17:13;;;;;;;9.98;6.05;;;2.70;99.90;;;;;;4976854;28;20045;-67
2023/01/18 12:19:57;;;;;;;13.88;5.97;;;2.70;99.90;;;;;;4978066;28;20057;-67
2023/01/18 12:22:52;;;;;;;8.48;5.57;;;2.80;99.90;;;;;;4978893;28;20037;-67
2023/01/18 12:25:24;;;;;;;9.25;5.85;;;2.80;99.90;;;;;;4977159;28;20042;-67
2023/01/18 12:28:18;;;;;;;9.13;5.45;;;2.90;99.90;;;;;;4977612;28;20104;-67
2023/01/18 12:31:30;;;;;;;12.20;6.80;;;2.90;99.90;;;;;;4977989;28;20540;-67
2023/01/18 12:34:00;;;;;;;9.75;5.93;;;3.10;99.90;;;;;;4939829;28;20507;-67
2023/01/18 12:36:45;;;;;;;7.13;5.22;;;3.30;99.90;;;;;;4978968;28;20773;-67
2023/01/18 12:39:49;;;;;;;14.18;5.00;;;3.30;99.90;;;;;;4977610;28;20045;-67
2023/01/18 12:42:48;;;;;;;9.63;4.80;;;3.40;99.90;;;;;;4963599;28;20132;-67
2023/01/18 12:45:26;;;;;;;7.50;5.45;;;3.50;99.90;;;;;;4993297;28;20049;-67
2023/01/18 12:48:04;;;;;;;11.02;5.30;;;3.60;99.90;;;;;;4992364;28;20054;-67
2023/01/18 12:50:35;;;;;;;7.68;5.20;;;3.80;99.90;;;;;;4961698;28;20637;-67
2023/01/18 12:53:40;;;;;;;9.38;5.40;;;3.80;99.90;;;;;;4979211;28;20049;-67
2023/01/18 12:56:46;;;;;;;8.77;5.15;;;3.90;99.90;;;;;;4926416;28;20569;-67
2023/01/18 12:59:19;;;;;;;6.82;4.88;;;4.00;99.90;;;;;;4978516;28;20132;-67
2023/01/18 13:01:53;;;;;;;9.18;5.55;;;3.90;99.90;;;;;;4980154;28;20045;-67
2023/01/18 13:04:38;;;;;;;6.82;5.10;;;4.00;99.90;;;;;;4979371;28;20510;-67
2023/01/18 13:07:12;;;;;;;9.35;6.20;;;3.90;99.90;;;;;;4998465;28;20172;-67
2023/01/18 13:09:46;;;;;;;8.68;5.38;;;4.00;99.90;;;;;;4983187;28;20038;-67
2023/01/18 13:12:13;;;;;;;8.20;5.05;;;4.00;99.90;;;;;;4978135;28;20069;-67
2023/01/18 13:14:47;;;;;;;10.68;5.57;;;4.00;99.90;;;;;;4980998;28;20041;-67
2023/01/18 13:17:40;;;;;;;8.25;5.78;;;4.00;99.90;;;;;;4980230;28;20441;-67
2023/01/18 13:20:15;;;;;;;8.52;4.72;;;4.10;99.90;;;;;;4975754;28;20104;-67
2023/01/18 13:23:25;;;;;;;9.18;5.78;;;4.00;99.90;;;;;;4996321;28;20042;-67
2023/01/18 13:26:02;;;;;;;7.07;4.82;;;4.00;99.90;;;;;;4981894;28;20073;-67
2023/01/18 13:28:28;;;;;;;14.82;4.97;;;4.10;99.90;;;;;;4982425;28;20052;-67
2023/01/18 13:30:59;;;;;;;8.43;5.32;;;4.00;99.90;;;;;;4995863;28;20490;-67
2023/01/18 13:33:31;;;;;;;8.63;4.63;;;4.10;99.90;;;;;;4979542;28;20052;-67
2023/01/18 13:36:01;;;;;;;8.30;5.10;;;4.10;99.90;;;;;;4994645;28;20380;-67
2023/01/18 13:38:35;;;;;;;6.97;4.63;;;4.10;99.90;;;;;;4965434;28;20049;-67
2023/01/18 13:41:06;;;;;;;7.80;4.95;;;4.10;99.90;;;;;;4977524;28;20100;-67
2023/01/18 13:43:44;;;;;;;8.73;4.85;;;4.00;99.90;;;;;;4996463;28;20045;-67
2023/01/18 13:46:16;;;;;;;8.55;4.82;;;4.00;99.90;;;;;;4979796;28;20394;-66